sensor_id;sensor_type;location;lat;lon;timestamp;temperature;humidity
61386;DHT22;47256;18.904;-99.054;2022-11-18T00:01:50;25.60;88.00
61386;DHT22;47256;18.904;-99.054;2022-11-18T00:04:27;25.60;87.40
61386;DHT22;47256;18.904;-99.054;2022-11-18T00:07:02;25.50;87.80
61386;DHT22;47256;18.904;-99.054;2022-11-18T00:09:53;25.50;87.20
61386;DHT22;47256;18.904;-99.054;2022-11-18T00:12:23;25.40;87.20
61386;DHT22;47256;18.904;-99.054;2022-11-18T00:15:12;25.40;88.10
61386;DHT22;47256;18.904;-99.054;2022-11-18T00:17:47;25.30;89.00
61386;DHT22;47256;18.904;-99.054;2022-11-18T00:20:21;25.20;88.80
61386;DHT22;47256;18.904;-99.054;2022-11-18T00:22:59;25.20;88.60
61386;DHT22;47256;18.904;-99.054;2022-11-18T00:25:39;25.10;88.40
61386;DHT22;47256;18.904;-99.054;2022-11-18T00:28:15;25.00;89.40
61386;DHT22;47256;18.904;-99.054;2022-11-18T00:30:48;24.90;89.20
61386;DHT22;47256;18.904;-99.054;2022-11-18T00:33:17;24.90;89.60
61386;DHT22;47256;18.904;-99.054;2022-11-18T00:35:53;24.80;89.40
61386;DHT22;47256;18.904;-99.054;2022-11-18T00:38:31;24.80;89.50
61386;DHT22;47256;18.904;-99.054;2022-11-18T00:41:06;24.80;89.70
61386;DHT22;47256;18.904;-99.054;2022-11-18T00:43:38;24.80;90.10
61386;DHT22;47256;18.904;-99.054;2022-11-18T00:46:09;24.70;90.00
61386;DHT22;47256;18.904;-99.054;2022-11-18T00:48:37;24.70;90.10
61386;DHT22;47256;18.904;-99.054;2022-11-18T00:51:16;24.70;90.50
61386;DHT22;47256;18.904;-99.054;2022-11-18T00:53:48;24.60;90.60
61386;DHT22;47256;18.904;-99.054;2022-11-18T00:56:15;24.60;90.70
61386;DHT22;47256;18.904;-99.054;2022-11-18T00:58:46;24.60;91.10
61386;DHT22;47256;18.904;-99.054;2022-11-18T01:01:14;24.50;91.50
61386;DHT22;47256;18.904;-99.054;2022-11-18T01:03:41;24.40;91.20
61386;DHT22;47256;18.904;-99.054;2022-11-18T01:06:10;24.40;90.70
61386;DHT22;47256;18.904;-99.054;2022-11-18T01:08:37;24.30;90.70
61386;DHT22;47256;18.904;-99.054;2022-11-18T01:11:04;24.30;90.80
61386;DHT22;47256;18.904;-99.054;2022-11-18T01:13:51;24.20;90.70
61386;DHT22;47256;18.904;-99.054;2022-11-18T01:16:23;24.20;90.70
61386;DHT22;47256;18.904;-99.054;2022-11-18T01:18:54;24.10;90.90
61386;DHT22;47256;18.904;-99.054;2022-11-18T01:21:23;24.10;91.10
61386;DHT22;47256;18.904;-99.054;2022-11-18T01:23:50;24.10;91.20
61386;DHT22;47256;18.904;-99.054;2022-11-18T01:26:20;24.10;91.00
61386;DHT22;47256;18.904;-99.054;2022-11-18T01:28:47;24.10;91.20
61386;DHT22;47256;18.904;-99.054;2022-11-18T01:31:18;24.10;91.30
61386;DHT22;47256;18.904;-99.054;2022-11-18T01:33:46;24.10;91.90
61386;DHT22;47256;18.904;-99.054;2022-11-18T01:36:16;24.00;91.90
61386;DHT22;47256;18.904;-99.054;2022-11-18T01:38:46;23.90;91.70
61386;DHT22;47256;18.904;-99.054;2022-11-18T01:41:15;23.90;91.60
61386;DHT22;47256;18.904;-99.054;2022-11-18T01:43:58;23.80;91.60
61386;DHT22;47256;18.904;-99.054;2022-11-18T01:46:29;23.90;91.50
61386;DHT22;47256;18.904;-99.054;2022-11-18T01:49:05;23.80;91.40
61386;DHT22;47256;18.904;-99.054;2022-11-18T01:51:55;23.80;91.40
61386;DHT22;47256;18.904;-99.054;2022-11-18T01:54:39;23.90;92.00
61386;DHT22;47256;18.904;-99.054;2022-11-18T01:57:13;23.80;92.40
61386;DHT22;47256;18.904;-99.054;2022-11-18T01:59:49;23.80;92.20
61386;DHT22;47256;18.904;-99.054;2022-11-18T02:02:20;23.70;91.80
61386;DHT22;47256;18.904;-99.054;2022-11-18T02:04:50;23.70;91.70
61386;DHT22;47256;18.904;-99.054;2022-11-18T02:07:20;23.70;91.70
61386;DHT22;47256;18.904;-99.054;2022-11-18T02:09:50;23.60;91.90
61386;DHT22;47256;18.904;-99.054;2022-11-18T02:12:19;23.60;92.50
61386;DHT22;47256;18.904;-99.054;2022-11-18T02:14:47;23.50;92.40
61386;DHT22;47256;18.904;-99.054;2022-11-18T02:17:42;23.50;92.20
61386;DHT22;47256;18.904;-99.054;2022-11-18T02:20:27;23.50;92.60
61386;DHT22;47256;18.904;-99.054;2022-11-18T02:28:31;23.50;92.40
61386;DHT22;47256;18.904;-99.054;2022-11-18T02:34:17;23.40;93.30
61386;DHT22;47256;18.904;-99.054;2022-11-18T02:39:30;23.40;92.70
61386;DHT22;47256;18.904;-99.054;2022-11-18T02:42:08;23.40;92.70
61386;DHT22;47256;18.904;-99.054;2022-11-18T02:44:42;23.50;92.80
61386;DHT22;47256;18.904;-99.054;2022-11-18T02:47:14;23.50;93.00
61386;DHT22;47256;18.904;-99.054;2022-11-18T02:49:49;23.50;92.80
61386;DHT22;47256;18.904;-99.054;2022-11-18T02:52:23;23.40;92.80
61386;DHT22;47256;18.904;-99.054;2022-11-18T02:55:01;23.40;92.60
61386;DHT22;47256;18.904;-99.054;2022-11-18T02:57:33;23.40;92.80
61386;DHT22;47256;18.904;-99.054;2022-11-18T03:00:06;23.40;92.20
61386;DHT22;47256;18.904;-99.054;2022-11-18T03:02:46;23.50;92.10
61386;DHT22;47256;18.904;-99.054;2022-11-18T03:05:40;23.50;92.00
61386;DHT22;47256;18.904;-99.054;2022-11-18T03:08:15;23.60;92.10
61386;DHT22;47256;18.904;-99.054;2022-11-18T03:11:02;23.60;92.80
61386;DHT22;47256;18.904;-99.054;2022-11-18T03:16:41;23.50;93.00
61386;DHT22;47256;18.904;-99.054;2022-11-18T03:22:20;23.10;93.10
61386;DHT22;47256;18.904;-99.054;2022-11-18T03:25:00;23.10;93.00
61386;DHT22;47256;18.904;-99.054;2022-11-18T03:31:06;23.00;92.80
61386;DHT22;47256;18.904;-99.054;2022-11-18T03:33:41;23.10;92.90
61386;DHT22;47256;18.904;-99.054;2022-11-18T03:36:14;23.00;92.70
61386;DHT22;47256;18.904;-99.054;2022-11-18T03:38:53;23.00;93.00
61386;DHT22;47256;18.904;-99.054;2022-11-18T03:41:25;23.00;92.90
61386;DHT22;47256;18.904;-99.054;2022-11-18T03:44:01;22.90;92.70
61386;DHT22;47256;18.904;-99.054;2022-11-18T03:46:40;22.90;93.00
61386;DHT22;47256;18.904;-99.054;2022-11-18T03:49:19;22.90;93.00
61386;DHT22;47256;18.904;-99.054;2022-11-18T03:51:56;22.90;93.20
61386;DHT22;47256;18.904;-99.054;2022-11-18T03:57:26;22.90;93.00
61386;DHT22;47256;18.904;-99.054;2022-11-18T04:00:10;22.90;92.90
61386;DHT22;47256;18.904;-99.054;2022-11-18T04:02:46;22.90;93.10
61386;DHT22;47256;18.904;-99.054;2022-11-18T04:05:18;22.90;93.40
61386;DHT22;47256;18.904;-99.054;2022-11-18T04:08:01;22.90;93.40
61386;DHT22;47256;18.904;-99.054;2022-11-18T04:13:24;22.80;94.00
61386;DHT22;47256;18.904;-99.054;2022-11-18T04:15:54;22.70;94.00
61386;DHT22;47256;18.904;-99.054;2022-11-18T04:18:24;22.70;94.00
61386;DHT22;47256;18.904;-99.054;2022-11-18T04:20:54;22.70;94.30
61386;DHT22;47256;18.904;-99.054;2022-11-18T04:23:24;22.60;94.30
61386;DHT22;47256;18.904;-99.054;2022-11-18T04:25:53;22.60;94.30
61386;DHT22;47256;18.904;-99.054;2022-11-18T04:28:22;22.60;94.00
61386;DHT22;47256;18.904;-99.054;2022-11-18T04:30:50;22.60;94.00
61386;DHT22;47256;18.904;-99.054;2022-11-18T04:33:45;22.60;94.10
61386;DHT22;47256;18.904;-99.054;2022-11-18T04:36:18;22.70;94.20
61386;DHT22;47256;18.904;-99.054;2022-11-18T04:38:45;22.70;94.20
61386;DHT22;47256;18.904;-99.054;2022-11-18T04:41:16;22.80;94.20
61386;DHT22;47256;18.904;-99.054;2022-11-18T04:43:46;22.80;94.10
61386;DHT22;47256;18.904;-99.054;2022-11-18T04:46:15;22.70;94.10
61386;DHT22;47256;18.904;-99.054;2022-11-18T04:48:45;22.70;94.10
61386;DHT22;47256;18.904;-99.054;2022-11-18T04:51:13;22.70;93.90
61386;DHT22;47256;18.904;-99.054;2022-11-18T04:53:42;22.70;94.00
61386;DHT22;47256;18.904;-99.054;2022-11-18T04:56:10;22.70;94.00
61386;DHT22;47256;18.904;-99.054;2022-11-18T04:58:45;22.60;94.10
61386;DHT22;47256;18.904;-99.054;2022-11-18T05:01:13;22.60;94.30
61386;DHT22;47256;18.904;-99.054;2022-11-18T05:03:41;22.60;94.30
61386;DHT22;47256;18.904;-99.054;2022-11-18T05:06:08;22.50;94.70
61386;DHT22;47256;18.904;-99.054;2022-11-18T05:08:36;22.40;94.50
61386;DHT22;47256;18.904;-99.054;2022-11-18T05:11:08;22.40;94.40
61386;DHT22;47256;18.904;-99.054;2022-11-18T05:13:56;22.30;94.60
61386;DHT22;47256;18.904;-99.054;2022-11-18T05:16:24;22.30;94.50
61386;DHT22;47256;18.904;-99.054;2022-11-18T05:18:51;22.30;94.60
61386;DHT22;47256;18.904;-99.054;2022-11-18T05:21:20;22.30;94.70
61386;DHT22;47256;18.904;-99.054;2022-11-18T05:23:48;22.30;94.60
61386;DHT22;47256;18.904;-99.054;2022-11-18T05:26:16;22.30;94.70
61386;DHT22;47256;18.904;-99.054;2022-11-18T05:28:45;22.40;94.70
61386;DHT22;47256;18.904;-99.054;2022-11-18T05:31:14;22.40;94.90
61386;DHT22;47256;18.904;-99.054;2022-11-18T05:33:44;22.40;94.80
61386;DHT22;47256;18.904;-99.054;2022-11-18T05:36:15;22.40;94.80
61386;DHT22;47256;18.904;-99.054;2022-11-18T05:38:42;22.50;94.80
61386;DHT22;47256;18.904;-99.054;2022-11-18T05:41:10;22.40;95.30
61386;DHT22;47256;18.904;-99.054;2022-11-18T05:44:11;22.40;95.60
61386;DHT22;47256;18.904;-99.054;2022-11-18T05:46:38;22.30;95.60
61386;DHT22;47256;18.904;-99.054;2022-11-18T05:49:06;22.40;95.90
61386;DHT22;47256;18.904;-99.054;2022-11-18T05:51:33;22.40;95.80
61386;DHT22;47256;18.904;-99.054;2022-11-18T05:54:09;22.30;95.80
61386;DHT22;47256;18.904;-99.054;2022-11-18T05:56:40;22.30;95.90
61386;DHT22;47256;18.904;-99.054;2022-11-18T05:59:14;22.20;96.40
61386;DHT22;47256;18.904;-99.054;2022-11-18T06:04:37;22.20;95.90
61386;DHT22;47256;18.904;-99.054;2022-11-18T06:07:43;22.30;96.20
61386;DHT22;47256;18.904;-99.054;2022-11-18T06:10:20;22.30;95.80
61386;DHT22;47256;18.904;-99.054;2022-11-18T06:12:49;22.30;95.60
61386;DHT22;47256;18.904;-99.054;2022-11-18T06:15:24;22.30;96.00
61386;DHT22;47256;18.904;-99.054;2022-11-18T06:18:06;22.30;96.00
61386;DHT22;47256;18.904;-99.054;2022-11-18T06:20:37;22.20;95.90
61386;DHT22;47256;18.904;-99.054;2022-11-18T06:23:05;22.20;96.00
61386;DHT22;47256;18.904;-99.054;2022-11-18T06:25:32;22.30;96.00
61386;DHT22;47256;18.904;-99.054;2022-11-18T06:28:04;22.30;95.60
61386;DHT22;47256;18.904;-99.054;2022-11-18T06:30:31;22.30;95.60
61386;DHT22;47256;18.904;-99.054;2022-11-18T06:33:00;22.30;95.50
61386;DHT22;47256;18.904;-99.054;2022-11-18T06:35:29;22.40;95.80
61386;DHT22;47256;18.904;-99.054;2022-11-18T06:37:58;22.30;95.80
61386;DHT22;47256;18.904;-99.054;2022-11-18T06:40:26;22.30;95.90
61386;DHT22;47256;18.904;-99.054;2022-11-18T06:42:53;22.20;96.20
61386;DHT22;47256;18.904;-99.054;2022-11-18T06:45:38;22.20;96.00
61386;DHT22;47256;18.904;-99.054;2022-11-18T06:48:25;22.20;96.10
61386;DHT22;47256;18.904;-99.054;2022-11-18T06:50:52;22.20;95.80
61386;DHT22;47256;18.904;-99.054;2022-11-18T06:53:21;22.20;95.80
61386;DHT22;47256;18.904;-99.054;2022-11-18T06:55:48;22.20;95.80
61386;DHT22;47256;18.904;-99.054;2022-11-18T06:58:18;22.10;95.90
61386;DHT22;47256;18.904;-99.054;2022-11-18T07:00:45;22.00;96.00
61386;DHT22;47256;18.904;-99.054;2022-11-18T07:03:13;22.10;96.20
61386;DHT22;47256;18.904;-99.054;2022-11-18T07:05:40;22.10;96.30
61386;DHT22;47256;18.904;-99.054;2022-11-18T07:08:07;22.10;96.40
61386;DHT22;47256;18.904;-99.054;2022-11-18T07:10:34;22.20;96.20
61386;DHT22;47256;18.904;-99.054;2022-11-18T07:13:01;22.20;96.40
61386;DHT22;47256;18.904;-99.054;2022-11-18T07:15:28;22.20;96.60
61386;DHT22;47256;18.904;-99.054;2022-11-18T07:17:56;22.20;96.50
61386;DHT22;47256;18.904;-99.054;2022-11-18T07:20:24;22.20;96.40
61386;DHT22;47256;18.904;-99.054;2022-11-18T07:22:52;22.20;96.60
61386;DHT22;47256;18.904;-99.054;2022-11-18T07:25:19;22.20;96.40
61386;DHT22;47256;18.904;-99.054;2022-11-18T07:27:46;22.20;96.50
61386;DHT22;47256;18.904;-99.054;2022-11-18T07:30:14;22.30;96.30
61386;DHT22;47256;18.904;-99.054;2022-11-18T07:32:42;22.30;96.30
61386;DHT22;47256;18.904;-99.054;2022-11-18T07:35:09;22.30;96.20
61386;DHT22;47256;18.904;-99.054;2022-11-18T07:37:36;22.30;96.40
61386;DHT22;47256;18.904;-99.054;2022-11-18T07:40:03;22.20;96.50
61386;DHT22;47256;18.904;-99.054;2022-11-18T07:42:31;22.20;96.80
61386;DHT22;47256;18.904;-99.054;2022-11-18T07:45:24;22.10;96.80
61386;DHT22;47256;18.904;-99.054;2022-11-18T07:47:53;22.00;96.90
61386;DHT22;47256;18.904;-99.054;2022-11-18T07:50:20;22.00;96.90
61386;DHT22;47256;18.904;-99.054;2022-11-18T07:52:48;22.00;96.80
61386;DHT22;47256;18.904;-99.054;2022-11-18T07:55:15;22.00;96.60
61386;DHT22;47256;18.904;-99.054;2022-11-18T07:57:52;22.00;96.60
61386;DHT22;47256;18.904;-99.054;2022-11-18T08:00:21;22.10;96.60
61386;DHT22;47256;18.904;-99.054;2022-11-18T08:02:50;22.10;96.70
61386;DHT22;47256;18.904;-99.054;2022-11-18T08:05:18;22.10;96.90
61386;DHT22;47256;18.904;-99.054;2022-11-18T08:07:45;22.10;96.80
61386;DHT22;47256;18.904;-99.054;2022-11-18T08:10:12;22.10;96.70
61386;DHT22;47256;18.904;-99.054;2022-11-18T08:12:39;22.00;96.70
61386;DHT22;47256;18.904;-99.054;2022-11-18T08:15:07;22.00;96.60
61386;DHT22;47256;18.904;-99.054;2022-11-18T08:17:34;22.00;96.70
61386;DHT22;47256;18.904;-99.054;2022-11-18T08:20:02;22.00;96.80
61386;DHT22;47256;18.904;-99.054;2022-11-18T08:22:29;22.00;96.70
61386;DHT22;47256;18.904;-99.054;2022-11-18T08:24:56;22.00;96.80
61386;DHT22;47256;18.904;-99.054;2022-11-18T08:27:23;21.90;96.60
61386;DHT22;47256;18.904;-99.054;2022-11-18T08:29:51;21.90;96.70
61386;DHT22;47256;18.904;-99.054;2022-11-18T08:32:18;21.90;96.90
61386;DHT22;47256;18.904;-99.054;2022-11-18T08:34:45;21.80;97.00
61386;DHT22;47256;18.904;-99.054;2022-11-18T08:37:12;21.90;97.00
61386;DHT22;47256;18.904;-99.054;2022-11-18T08:39:39;21.80;97.00
61386;DHT22;47256;18.904;-99.054;2022-11-18T08:42:08;21.70;97.10
61386;DHT22;47256;18.904;-99.054;2022-11-18T08:44:36;21.70;97.40
61386;DHT22;47256;18.904;-99.054;2022-11-18T08:47:03;21.70;97.40
61386;DHT22;47256;18.904;-99.054;2022-11-18T08:49:31;21.70;97.60
61386;DHT22;47256;18.904;-99.054;2022-11-18T08:51:58;21.70;97.50
61386;DHT22;47256;18.904;-99.054;2022-11-18T08:54:25;21.60;97.50
61386;DHT22;47256;18.904;-99.054;2022-11-18T08:56:55;21.70;97.60
61386;DHT22;47256;18.904;-99.054;2022-11-18T08:59:24;21.70;97.80
61386;DHT22;47256;18.904;-99.054;2022-11-18T09:01:51;21.70;97.90
61386;DHT22;47256;18.904;-99.054;2022-11-18T09:04:19;21.80;97.80
61386;DHT22;47256;18.904;-99.054;2022-11-18T09:06:46;21.70;97.70
61386;DHT22;47256;18.904;-99.054;2022-11-18T09:09:16;21.70;97.80
61386;DHT22;47256;18.904;-99.054;2022-11-18T09:11:42;21.70;97.70
61386;DHT22;47256;18.904;-99.054;2022-11-18T09:14:10;21.50;97.70
61386;DHT22;47256;18.904;-99.054;2022-11-18T09:16:38;21.60;97.80
61386;DHT22;47256;18.904;-99.054;2022-11-18T09:19:05;21.50;97.80
61386;DHT22;47256;18.904;-99.054;2022-11-18T09:21:32;21.60;97.80
61386;DHT22;47256;18.904;-99.054;2022-11-18T09:24:03;21.50;97.60
61386;DHT22;47256;18.904;-99.054;2022-11-18T09:26:31;21.50;97.70
61386;DHT22;47256;18.904;-99.054;2022-11-18T09:28:58;21.50;97.60
61386;DHT22;47256;18.904;-99.054;2022-11-18T09:31:27;21.50;97.50
61386;DHT22;47256;18.904;-99.054;2022-11-18T09:33:57;21.50;97.70
61386;DHT22;47256;18.904;-99.054;2022-11-18T09:36:24;21.50;97.90
61386;DHT22;47256;18.904;-99.054;2022-11-18T09:38:52;21.50;97.90
61386;DHT22;47256;18.904;-99.054;2022-11-18T09:41:48;21.40;98.00
61386;DHT22;47256;18.904;-99.054;2022-11-18T09:44:45;21.40;97.90
61386;DHT22;47256;18.904;-99.054;2022-11-18T09:49:44;21.40;98.00
61386;DHT22;47256;18.904;-99.054;2022-11-18T09:52:36;21.40;97.50
61386;DHT22;47256;18.904;-99.054;2022-11-18T09:55:14;21.40;97.80
61386;DHT22;47256;18.904;-99.054;2022-11-18T09:57:47;21.30;97.90
61386;DHT22;47256;18.904;-99.054;2022-11-18T10:00:21;21.20;97.80
61386;DHT22;47256;18.904;-99.054;2022-11-18T10:03:06;21.20;97.60
61386;DHT22;47256;18.904;-99.054;2022-11-18T10:06:20;21.10;97.40
61386;DHT22;47256;18.904;-99.054;2022-11-18T10:17:19;21.20;97.40
61386;DHT22;47256;18.904;-99.054;2022-11-18T10:20:20;21.30;97.30
61386;DHT22;47256;18.904;-99.054;2022-11-18T10:22:55;21.20;97.00
61386;DHT22;47256;18.904;-99.054;2022-11-18T10:25:25;21.10;97.00
61386;DHT22;47256;18.904;-99.054;2022-11-18T10:27:51;21.10;97.50
61386;DHT22;47256;18.904;-99.054;2022-11-18T10:30:23;21.10;97.30
61386;DHT22;47256;18.904;-99.054;2022-11-18T10:32:56;21.10;97.60
61386;DHT22;47256;18.904;-99.054;2022-11-18T10:35:30;21.10;97.60
61386;DHT22;47256;18.904;-99.054;2022-11-18T10:40:36;21.20;97.60
61386;DHT22;47256;18.904;-99.054;2022-11-18T10:43:08;21.30;97.80
61386;DHT22;47256;18.904;-99.054;2022-11-18T10:45:39;21.20;97.80
61386;DHT22;47256;18.904;-99.054;2022-11-18T10:50:48;21.20;97.30
61386;DHT22;47256;18.904;-99.054;2022-11-18T10:53:31;21.20;97.70
61386;DHT22;47256;18.904;-99.054;2022-11-18T10:56:07;21.30;97.70
61386;DHT22;47256;18.904;-99.054;2022-11-18T10:58:46;21.30;97.20
61386;DHT22;47256;18.904;-99.054;2022-11-18T11:01:20;21.20;97.50
61386;DHT22;47256;18.904;-99.054;2022-11-18T11:04:03;21.20;97.30
61386;DHT22;47256;18.904;-99.054;2022-11-18T11:06:34;21.10;97.40
61386;DHT22;47256;18.904;-99.054;2022-11-18T11:12:10;21.10;97.30
61386;DHT22;47256;18.904;-99.054;2022-11-18T11:17:05;21.10;97.70
61386;DHT22;47256;18.904;-99.054;2022-11-18T11:20:14;21.10;97.90
61386;DHT22;47256;18.904;-99.054;2022-11-18T11:22:45;21.10;98.10
61386;DHT22;47256;18.904;-99.054;2022-11-18T11:25:46;21.10;98.20
61386;DHT22;47256;18.904;-99.054;2022-11-18T11:34:23;21.20;97.50
61386;DHT22;47256;18.904;-99.054;2022-11-18T11:51:03;20.80;97.90
61386;DHT22;47256;18.904;-99.054;2022-11-18T11:54:13;20.90;97.90
61386;DHT22;47256;18.904;-99.054;2022-11-18T11:57:02;21.00;97.60
61386;DHT22;47256;18.904;-99.054;2022-11-18T12:05:15;21.00;97.70
61386;DHT22;47256;18.904;-99.054;2022-11-18T12:07:57;21.00;97.60
61386;DHT22;47256;18.904;-99.054;2022-11-18T12:10:29;20.90;97.80
61386;DHT22;47256;18.904;-99.054;2022-11-18T12:16:23;20.90;97.80
61386;DHT22;47256;18.904;-99.054;2022-11-18T12:26:54;20.70;98.10
61386;DHT22;47256;18.904;-99.054;2022-11-18T12:29:24;20.80;98.10
61386;DHT22;47256;18.904;-99.054;2022-11-18T12:32:02;20.80;98.10
61386;DHT22;47256;18.904;-99.054;2022-11-18T12:34:42;20.80;98.00
61386;DHT22;47256;18.904;-99.054;2022-11-18T12:42:46;20.60;98.20
61386;DHT22;47256;18.904;-99.054;2022-11-18T12:48:39;20.60;98.40
61386;DHT22;47256;18.904;-99.054;2022-11-18T12:53:44;20.50;98.30
61386;DHT22;47256;18.904;-99.054;2022-11-18T12:56:25;20.50;98.30
61386;DHT22;47256;18.904;-99.054;2022-11-18T12:58:58;20.50;98.10
61386;DHT22;47256;18.904;-99.054;2022-11-18T13:01:31;20.60;98.20
61386;DHT22;47256;18.904;-99.054;2022-11-18T13:06:36;20.50;98.30
61386;DHT22;47256;18.904;-99.054;2022-11-18T13:09:13;20.50;98.50
61386;DHT22;47256;18.904;-99.054;2022-11-18T13:11:46;20.40;98.50
61386;DHT22;47256;18.904;-99.054;2022-11-18T13:14:21;20.40;98.80
61386;DHT22;47256;18.904;-99.054;2022-11-18T13:22:53;20.50;98.50
61386;DHT22;47256;18.904;-99.054;2022-11-18T13:25:40;20.50;98.60
61386;DHT22;47256;18.904;-99.054;2022-11-18T13:33:43;20.60;98.00
61386;DHT22;47256;18.904;-99.054;2022-11-18T13:36:23;20.60;98.00
61386;DHT22;47256;18.904;-99.054;2022-11-18T13:39:16;20.70;98.10
61386;DHT22;47256;18.904;-99.054;2022-11-18T13:41:44;20.70;98.40
61386;DHT22;47256;18.904;-99.054;2022-11-18T13:46:45;20.80;98.50
61386;DHT22;47256;18.904;-99.054;2022-11-18T13:49:20;20.80;98.50
61386;DHT22;47256;18.904;-99.054;2022-11-18T13:51:49;21.00;98.60
61386;DHT22;47256;18.904;-99.054;2022-11-18T13:54:23;21.10;98.30
61386;DHT22;47256;18.904;-99.054;2022-11-18T13:56:53;21.10;98.20
61386;DHT22;47256;18.904;-99.054;2022-11-18T13:59:23;21.20;98.50
61386;DHT22;47256;18.904;-99.054;2022-11-18T14:01:54;21.30;98.30
61386;DHT22;47256;18.904;-99.054;2022-11-18T14:04:28;21.40;98.30
61386;DHT22;47256;18.904;-99.054;2022-11-18T14:07:34;21.50;98.30
61386;DHT22;47256;18.904;-99.054;2022-11-18T14:10:07;21.70;98.40
61386;DHT22;47256;18.904;-99.054;2022-11-18T14:12:35;21.70;98.20
61386;DHT22;47256;18.904;-99.054;2022-11-18T14:15:33;21.90;98.20
61386;DHT22;47256;18.904;-99.054;2022-11-18T14:18:02;22.10;97.70
61386;DHT22;47256;18.904;-99.054;2022-11-18T14:20:31;22.10;97.70
61386;DHT22;47256;18.904;-99.054;2022-11-18T14:23:02;22.30;97.80
61386;DHT22;47256;18.904;-99.054;2022-11-18T14:25:33;22.40;97.30
61386;DHT22;47256;18.904;-99.054;2022-11-18T14:28:21;22.40;96.70
61386;DHT22;47256;18.904;-99.054;2022-11-18T14:33:35;22.60;96.50
61386;DHT22;47256;18.904;-99.054;2022-11-18T14:36:16;22.70;95.80
61386;DHT22;47256;18.904;-99.054;2022-11-18T14:38:47;22.60;95.10
61386;DHT22;47256;18.904;-99.054;2022-11-18T14:41:19;22.60;95.60
61386;DHT22;47256;18.904;-99.054;2022-11-18T14:44:08;22.70;95.20
61386;DHT22;47256;18.904;-99.054;2022-11-18T14:46:43;22.80;95.80
61386;DHT22;47256;18.904;-99.054;2022-11-18T14:49:16;22.90;95.80
61386;DHT22;47256;18.904;-99.054;2022-11-18T14:51:44;23.00;95.30
61386;DHT22;47256;18.904;-99.054;2022-11-18T14:54:12;23.10;95.60
61386;DHT22;47256;18.904;-99.054;2022-11-18T14:56:46;23.30;95.10
61386;DHT22;47256;18.904;-99.054;2022-11-18T14:59:16;23.50;94.30
61386;DHT22;47256;18.904;-99.054;2022-11-18T15:01:44;23.60;93.30
61386;DHT22;47256;18.904;-99.054;2022-11-18T15:04:12;23.70;92.50
61386;DHT22;47256;18.904;-99.054;2022-11-18T15:06:39;23.70;92.90
61386;DHT22;47256;18.904;-99.054;2022-11-18T15:09:06;23.80;93.00
61386;DHT22;47256;18.904;-99.054;2022-11-18T15:11:34;23.90;93.00
61386;DHT22;47256;18.904;-99.054;2022-11-18T15:14:02;24.00;92.30
61386;DHT22;47256;18.904;-99.054;2022-11-18T15:16:32;24.00;92.70
61386;DHT22;47256;18.904;-99.054;2022-11-18T15:19:04;24.10;91.80
61386;DHT22;47256;18.904;-99.054;2022-11-18T15:21:37;24.20;91.90
61386;DHT22;47256;18.904;-99.054;2022-11-18T15:24:04;24.40;91.90
61386;DHT22;47256;18.904;-99.054;2022-11-18T15:26:39;24.40;91.60
61386;DHT22;47256;18.904;-99.054;2022-11-18T15:29:23;24.50;91.30
61386;DHT22;47256;18.904;-99.054;2022-11-18T15:31:56;24.70;90.70
61386;DHT22;47256;18.904;-99.054;2022-11-18T15:34:24;24.80;91.50
61386;DHT22;47256;18.904;-99.054;2022-11-18T15:36:51;25.00;91.10
61386;DHT22;47256;18.904;-99.054;2022-11-18T15:39:19;25.10;91.10
61386;DHT22;47256;18.904;-99.054;2022-11-18T15:41:46;25.20;91.20
61386;DHT22;47256;18.904;-99.054;2022-11-18T15:44:13;25.20;90.30
61386;DHT22;47256;18.904;-99.054;2022-11-18T15:46:44;25.30;90.60
61386;DHT22;47256;18.904;-99.054;2022-11-18T15:49:13;25.40;90.60
61386;DHT22;47256;18.904;-99.054;2022-11-18T15:51:43;25.50;90.20
61386;DHT22;47256;18.904;-99.054;2022-11-18T15:54:11;25.50;89.90
61386;DHT22;47256;18.904;-99.054;2022-11-18T15:56:39;25.60;89.30
61386;DHT22;47256;18.904;-99.054;2022-11-18T15:59:14;25.60;90.20
61386;DHT22;47256;18.904;-99.054;2022-11-18T16:01:44;25.80;89.00
61386;DHT22;47256;18.904;-99.054;2022-11-18T16:04:16;25.90;89.30
61386;DHT22;47256;18.904;-99.054;2022-11-18T16:06:44;26.00;88.90
61386;DHT22;47256;18.904;-99.054;2022-11-18T16:09:14;26.00;88.20
61386;DHT22;47256;18.904;-99.054;2022-11-18T16:11:42;26.10;86.90
61386;DHT22;47256;18.904;-99.054;2022-11-18T16:14:30;26.20;87.20
61386;DHT22;47256;18.904;-99.054;2022-11-18T16:16:57;26.30;86.70
61386;DHT22;47256;18.904;-99.054;2022-11-18T16:19:30;26.40;85.70
61386;DHT22;47256;18.904;-99.054;2022-11-18T16:30:49;26.60;86.20
61386;DHT22;47256;18.904;-99.054;2022-11-18T16:34:31;26.90;83.50
61386;DHT22;47256;18.904;-99.054;2022-11-18T16:37:03;27.00;84.00
61386;DHT22;47256;18.904;-99.054;2022-11-18T16:39:31;27.10;82.90
61386;DHT22;47256;18.904;-99.054;2022-11-18T16:42:00;27.10;81.10
61386;DHT22;47256;18.904;-99.054;2022-11-18T16:44:28;26.90;82.90
61386;DHT22;47256;18.904;-99.054;2022-11-18T16:46:56;26.90;81.90
61386;DHT22;47256;18.904;-99.054;2022-11-18T16:49:28;26.80;82.80
61386;DHT22;47256;18.904;-99.054;2022-11-18T16:51:56;26.80;81.20
61386;DHT22;47256;18.904;-99.054;2022-11-18T16:54:30;26.80;81.70
61386;DHT22;47256;18.904;-99.054;2022-11-18T16:57:23;26.90;81.90
61386;DHT22;47256;18.904;-99.054;2022-11-18T16:59:51;26.90;82.30
61386;DHT22;47256;18.904;-99.054;2022-11-18T17:02:23;26.90;82.00
61386;DHT22;47256;18.904;-99.054;2022-11-18T17:04:51;27.10;80.70
61386;DHT22;47256;18.904;-99.054;2022-11-18T17:07:20;27.20;82.40
61386;DHT22;47256;18.904;-99.054;2022-11-18T17:09:47;27.40;79.80
61386;DHT22;47256;18.904;-99.054;2022-11-18T17:12:14;27.40;82.40
61386;DHT22;47256;18.904;-99.054;2022-11-18T17:14:43;27.50;79.50
61386;DHT22;47256;18.904;-99.054;2022-11-18T17:17:39;27.60;80.30
61386;DHT22;47256;18.904;-99.054;2022-11-18T17:20:09;27.70;80.40
61386;DHT22;47256;18.904;-99.054;2022-11-18T17:22:42;27.60;78.60
61386;DHT22;47256;18.904;-99.054;2022-11-18T17:25:12;27.70;81.90
61386;DHT22;47256;18.904;-99.054;2022-11-18T17:27:39;27.80;80.80
61386;DHT22;47256;18.904;-99.054;2022-11-18T17:33:46;28.10;79.30
61386;DHT22;47256;18.904;-99.054;2022-11-18T17:36:20;28.30;79.20
61386;DHT22;47256;18.904;-99.054;2022-11-18T17:38:51;28.30;79.20
61386;DHT22;47256;18.904;-99.054;2022-11-18T17:41:21;28.20;77.40
61386;DHT22;47256;18.904;-99.054;2022-11-18T17:44:10;28.20;79.40
61386;DHT22;47256;18.904;-99.054;2022-11-18T17:46:38;28.40;80.80
61386;DHT22;47256;18.904;-99.054;2022-11-18T17:49:10;28.40;77.80
61386;DHT22;47256;18.904;-99.054;2022-11-18T17:51:41;28.50;78.80